Time;durP1;ratioP1;P1;durP2;ratioP2;P2;SDS_P1;SDS_P2;PMS_P1;PMS_P2;Temp;Humidity;BMP_temperature;BMP_pressure;BME280_temperature;BME280_humidity;BME280_pressure;Samples;Min_cycle;Max_cycle;Signal;HPM_P1;HPM_P2
2021/11/12 00:13:41;;;;;;;62.23;29.13;;;7.70;99.90;;;;;;5075117;28;20067;-81
2021/11/12 00:16:07;;;;;;;59.07;28.57;;;7.70;99.90;;;;;;5073962;28;20028;-81
2021/11/12 00:18:35;;;;;;;49.30;27.23;;;7.70;99.90;;;;;;5058048;28;20032;-81
2021/11/12 00:21:02;;;;;;;51.83;26.53;;;7.60;99.90;;;;;;5056173;28;20025;-81
2021/11/12 00:23:30;;;;;;;52.77;26.57;;;7.60;99.90;;;;;;5056892;28;20035;-83
2021/11/12 00:25:56;;;;;;;56.67;27.63;;;7.60;99.90;;;;;;5057082;28;20033;-81
2021/11/12 00:28:26;;;;;;;51.27;26.67;;;7.60;99.90;;;;;;5074800;28;20029;-81
2021/11/12 00:36:43;;;;;;;53.10;27.03;;;7.50;99.90;;;;;;5057106;28;20368;-81
2021/11/12 00:44:50;;;;;;;51.80;25.43;;;7.50;99.90;;;;;;5040839;28;20056;-81
2021/11/12 00:47:22;;;;;;;54.33;26.50;;;7.50;99.90;;;;;;5056648;28;20033;-81
2021/11/12 00:50:06;;;;;;;54.23;25.93;;;7.50;99.90;;;;;;5056500;28;20033;-81
2021/11/12 00:52:44;;;;;;;51.20;25.03;;;7.50;99.90;;;;;;5056877;28;20548;-81
2021/11/12 00:55:10;;;;;;;54.77;25.97;;;7.50;99.90;;;;;;5075142;28;20025;-81
2021/11/12 00:57:36;;;;;;;50.60;26.23;;;7.40;99.90;;;;;;5056648;28;20024;-83
2021/11/12 01:00:05;;;;;;;48.10;26.07;;;7.50;99.90;;;;;;5073704;28;20058;-81
2021/11/12 01:02:32;;;;;;;53.13;25.48;;;7.40;99.90;;;;;;5074707;28;20090;-81
2021/11/12 01:04:58;;;;;;;49.40;24.87;;;7.40;99.90;;;;;;5074145;28;20538;-81
2021/11/12 01:07:24;;;;;;;46.53;24.27;;;7.40;99.90;;;;;;5056185;28;20405;-80
2021/11/12 01:09:50;;;;;;;46.37;24.10;;;7.40;99.90;;;;;;5073564;28;20033;-81
2021/11/12 01:12:16;;;;;;;50.90;23.83;;;7.40;99.90;;;;;;5074462;28;20394;-81
2021/11/12 01:14:42;;;;;;;48.50;24.63;;;7.40;99.90;;;;;;5055976;28;20073;-81
2021/11/12 01:17:09;;;;;;;44.63;23.97;;;7.30;99.90;;;;;;5056020;28;20072;-81
2021/11/12 01:19:37;;;;;;;49.13;23.23;;;7.30;99.90;;;;;;5055719;28;20492;-81
2021/11/12 01:22:04;;;;;;;41.63;22.30;;;7.40;99.90;;;;;;5055909;28;20077;-81
2021/11/12 01:24:30;;;;;;;46.83;23.97;;;7.40;99.90;;;;;;5074238;28;20056;-81
2021/11/12 01:26:56;;;;;;;43.70;22.83;;;7.30;99.90;;;;;;5056146;28;20554;-82
2021/11/12 01:29:21;;;;;;;41.10;21.17;;;7.30;99.90;;;;;;5038203;28;20032;-82
2021/11/12 01:31:48;;;;;;;43.53;21.73;;;7.30;99.90;;;;;;5055566;28;20025;-81
2021/11/12 01:34:14;;;;;;;50.67;23.83;;;7.30;99.90;;;;;;5074126;28;20334;-81
2021/11/12 01:36:44;;;;;;;42.50;22.70;;;7.20;99.90;;;;;;5056339;28;20024;-81
2021/11/12 01:39:21;;;;;;;42.83;22.63;;;7.10;99.90;;;;;;5055596;28;20032;-81
2021/11/12 01:41:51;;;;;;;44.80;22.87;;;7.10;99.90;;;;;;5055971;28;20033;-81
2021/11/12 01:44:26;;;;;;;48.87;23.57;;;7.00;99.90;;;;;;5055869;28;20032;-80
2021/11/12 01:49:34;;;;;;;43.77;22.60;;;6.90;99.90;;;;;;5073885;28;20029;-81
2021/11/12 01:52:11;;;;;;;41.53;21.70;;;6.90;99.90;;;;;;5074531;28;20048;-81
2021/11/12 01:59:49;;;;;;;42.53;21.73;;;6.70;99.90;;;;;;5054963;28;20039;-81
2021/11/12 02:02:14;;;;;;;44.10;22.30;;;6.70;99.90;;;;;;5055810;28;20370;-81
2021/11/12 02:04:40;;;;;;;41.57;21.13;;;6.70;99.90;;;;;;5073723;28;20077;-82
2021/11/12 02:07:06;;;;;;;47.80;22.20;;;6.70;99.90;;;;;;5056027;28;20035;-81
2021/11/12 02:09:32;;;;;;;45.03;22.13;;;6.60;99.90;;;;;;5038270;28;20401;-83
2021/11/12 02:12:04;;;;;;;41.90;21.57;;;6.60;99.90;;;;;;5055644;28;20035;-82
2021/11/12 02:14:30;;;;;;;39.03;20.80;;;6.50;99.90;;;;;;5055899;28;20461;-81
2021/11/12 02:17:07;;;;;;;38.77;19.77;;;6.50;99.90;;;;;;5055552;28;20031;-82
2021/11/12 02:19:35;;;;;;;41.13;21.83;;;6.40;99.90;;;;;;5054910;28;20034;-81
2021/11/12 02:22:12;;;;;;;40.77;20.70;;;6.40;99.90;;;;;;5056274;28;20032;-81
2021/11/12 02:24:43;;;;;;;43.73;21.47;;;6.40;99.90;;;;;;5056080;28;20033;-81
2021/11/12 02:27:12;;;;;;;38.33;19.67;;;6.30;99.90;;;;;;5056545;28;20085;-83
2021/11/12 02:29:54;;;;;;;45.90;22.10;;;6.30;99.90;;;;;;5054456;28;20082;-81
2021/11/12 02:32:30;;;;;;;38.07;20.00;;;6.30;99.90;;;;;;5039316;28;20044;-80
2021/11/12 02:34:59;;;;;;;39.33;20.57;;;6.20;99.90;;;;;;5039430;28;20430;-81
2021/11/12 02:37:28;;;;;;;45.10;21.93;;;6.20;99.90;;;;;;5055745;28;20491;-81
2021/11/12 02:39:54;;;;;;;42.45;21.60;;;6.10;99.90;;;;;;5071946;28;20070;-80
2021/11/12 02:42:22;;;;;;;43.57;22.13;;;6.10;99.90;;;;;;5074667;28;20037;-80
2021/11/12 02:44:48;;;;;;;44.57;21.87;;;6.10;99.90;;;;;;5055740;28;20032;-80
2021/11/12 02:47:16;;;;;;;38.97;20.50;;;6.00;99.90;;;;;;5074139;28;20480;-80
2021/11/12 02:49:43;;;;;;;37.43;19.93;;;6.10;99.90;;;;;;5039764;28;20477;-81
2021/11/12 02:52:10;;;;;;;39.27;19.97;;;6.10;99.90;;;;;;5075207;28;20376;-82
2021/11/12 02:54:38;;;;;;;41.37;20.33;;;6.00;99.90;;;;;;5056098;28;20036;-80
2021/11/12 02:57:05;;;;;;;40.30;20.30;;;6.00;99.90;;;;;;5073402;28;20104;-79
2021/11/12 02:59:31;;;;;;;38.27;19.93;;;6.00;99.90;;;;;;5055468;28;20036;-81
2021/11/12 03:02:03;;;;;;;37.97;20.57;;;6.00;99.90;;;;;;5056389;28;20032;-81
2021/11/12 03:04:30;;;;;;;39.57;20.97;;;5.90;99.90;;;;;;5056381;28;20033;-82
2021/11/12 03:06:57;;;;;;;39.93;20.00;;;5.90;99.90;;;;;;5074874;28;20332;-80
2021/11/12 03:09:27;;;;;;;38.10;19.70;;;5.90;99.90;;;;;;5073845;28;20685;-80
2021/11/12 03:11:54;;;;;;;34.97;18.87;;;5.90;99.90;;;;;;5075617;28;20017;-79
2021/11/12 03:14:21;;;;;;;39.33;18.93;;;5.80;99.90;;;;;;5074356;28;20028;-81
2021/11/12 03:16:47;;;;;;;38.13;19.43;;;5.80;99.90;;;;;;5057195;28;20473;-80
2021/11/12 03:19:13;;;;;;;39.40;19.97;;;5.80;99.90;;;;;;5073596;28;20047;-82
2021/11/12 03:21:41;;;;;;;38.67;19.77;;;5.70;99.90;;;;;;5055656;28;20119;-82
2021/11/12 03:24:14;;;;;;;41.20;20.20;;;5.70;99.90;;;;;;5055590;28;20028;-82
2021/11/12 04:02:01;;;;;;;31.97;17.50;;;5.70;99.90;;;;;;5073400;28;20449;-82
2021/11/12 04:04:38;;;;;;;36.40;17.50;;;5.70;99.90;;;;;;5038193;28;20056;-81
2021/11/12 05:09:54;;;;;;;29.57;15.67;;;5.30;99.90;;;;;;5055693;28;20037;-83
2021/11/12 05:50:20;;;;;;;29.43;16.43;;;5.10;99.90;;;;;;5073391;28;20039;-84
2021/11/12 05:55:30;;;;;;;26.80;15.53;;;5.10;99.90;;;;;;5055251;28;20036;-83
2021/11/12 05:57:58;;;;;;;29.07;16.10;;;5.10;99.90;;;;;;5053099;28;20041;-81
2021/11/12 06:00:24;;;;;;;27.17;15.60;;;5.10;99.90;;;;;;5054678;28;20458;-80
2021/11/12 06:02:50;;;;;;;28.40;16.10;;;5.10;99.90;;;;;;5055013;28;20100;-80
2021/11/12 06:05:17;;;;;;;28.00;15.73;;;5.10;99.90;;;;;;5036071;28;20043;-80
2021/11/12 06:07:43;;;;;;;28.00;15.83;;;5.10;99.90;;;;;;5054211;28;20086;-81
2021/11/12 06:10:09;;;;;;;26.93;15.80;;;5.00;99.90;;;;;;5052777;28;20474;-81
2021/11/12 06:12:35;;;;;;;26.33;15.30;;;5.00;99.90;;;;;;5054050;28;20028;-84
2021/11/12 06:15:01;;;;;;;29.50;16.17;;;5.00;99.90;;;;;;5019676;28;20020;-82
2021/11/12 06:17:27;;;;;;;27.17;16.17;;;5.00;99.90;;;;;;5019455;28;20040;-82
2021/11/12 06:19:53;;;;;;;24.10;15.23;;;5.00;99.90;;;;;;5051907;28;20112;-83
2021/11/12 06:22:22;;;;;;;29.42;17.13;;;5.00;99.90;;;;;;5034758;28;20115;-83
2021/11/12 06:24:48;;;;;;;27.10;15.93;;;5.00;99.90;;;;;;5034035;28;20079;-83
2021/11/12 06:27:14;;;;;;;24.90;14.53;;;5.00;99.90;;;;;;5054113;28;20108;-80
2021/11/12 06:29:40;;;;;;;26.93;15.63;;;5.00;99.90;;;;;;5051332;28;20417;-80
2021/11/12 06:32:06;;;;;;;29.53;15.80;;;5.00;99.90;;;;;;5038065;28;20059;-81
2021/11/12 06:34:35;;;;;;;25.73;15.40;;;5.10;99.90;;;;;;5044953;28;20063;-80
2021/11/12 06:37:01;;;;;;;27.95;15.73;;;5.10;99.90;;;;;;5060730;28;20150;-82
2021/11/12 06:39:27;;;;;;;27.07;14.87;;;5.20;99.90;;;;;;5060576;28;20120;-81
2021/11/12 06:41:56;;;;;;;25.77;14.83;;;5.30;99.90;;;;;;5041313;28;20044;-82
2021/11/12 06:52:16;;;;;;;25.20;14.93;;;5.40;99.90;;;;;;5051574;28;20025;-81
2021/11/12 06:54:44;;;;;;;24.27;14.40;;;5.50;99.90;;;;;;5051014;28;20021;-81
2021/11/12 06:57:10;;;;;;;26.27;15.33;;;5.50;99.90;;;;;;5053020;28;20135;-81
2021/11/12 06:59:35;;;;;;;27.60;14.83;;;5.60;99.90;;;;;;5033411;28;20441;-81
2021/11/12 07:02:01;;;;;;;24.43;15.07;;;5.70;99.90;;;;;;5034748;28;20108;-82
2021/11/12 07:04:27;;;;;;;24.77;15.07;;;5.70;99.90;;;;;;5052407;28;20378;-83
2021/11/12 07:06:53;;;;;;;24.97;14.83;;;5.70;99.90;;;;;;5035465;28;20063;-84
2021/11/12 07:09:19;;;;;;;25.20;15.57;;;5.80;99.90;;;;;;5033401;28;20051;-82
2021/11/12 07:11:45;;;;;;;33.10;18.13;;;5.90;99.90;;;;;;5051035;28;20033;-83
2021/11/12 07:14:10;;;;;;;28.67;16.80;;;6.70;99.90;;;;;;5051789;28;20025;-84
2021/11/12 07:16:36;;;;;;;25.40;15.80;;;7.00;99.90;;;;;;5052762;28;20102;-81
2021/11/12 07:19:02;;;;;;;26.57;15.63;;;7.00;99.90;;;;;;5051004;28;20099;-82
2021/11/12 07:21:28;;;;;;;26.80;16.30;;;6.90;99.90;;;;;;5034368;28;20083;-81
2021/11/12 07:23:55;;;;;;;26.73;15.80;;;6.80;99.90;;;;;;5052726;28;20372;-82
2021/11/12 07:26:21;;;;;;;26.43;16.03;;;6.70;99.90;;;;;;5053408;28;20049;-82
2021/11/12 07:28:49;;;;;;;20.80;14.57;;;6.60;99.90;;;;;;5050729;28;20480;-80
2021/11/12 07:31:17;;;;;;;28.77;17.27;;;6.50;99.90;;;;;;5052612;28;20033;-81
2021/11/12 07:33:44;;;;;;;26.53;15.90;;;6.40;99.90;;;;;;5052389;28;20421;-81
2021/11/12 07:36:21;;;;;;;27.33;16.10;;;6.40;99.90;;;;;;5052925;28;20077;-81
2021/11/12 07:38:58;;;;;;;26.27;15.93;;;6.40;99.90;;;;;;5034494;28;20040;-80
2021/11/12 07:42:04;;;;;;;32.63;18.93;;;6.40;99.90;;;;;;5051511;28;20107;-81
2021/11/12 07:47:15;;;;;;;24.42;15.45;;;6.30;99.90;;;;;;5053259;28;20044;-83
2021/11/12 07:49:54;;;;;;;25.10;14.73;;;6.40;99.90;;;;;;5050596;28;20456;-82
2021/11/12 07:52:22;;;;;;;29.70;16.83;;;6.30;99.90;;;;;;5051728;28;20163;-80
2021/11/12 07:54:49;;;;;;;28.40;15.67;;;6.30;99.90;;;;;;5052723;28;20147;-78
2021/11/12 07:57:15;;;;;;;30.27;17.27;;;6.30;99.90;;;;;;5052300;28;20139;-79
2021/11/12 07:59:41;;;;;;;24.77;15.73;;;6.40;99.90;;;;;;5051290;28;20059;-78
2021/11/12 08:02:07;;;;;;;27.47;17.07;;;6.40;99.90;;;;;;5051814;28;20438;-79
2021/11/12 08:04:35;;;;;;;30.57;17.50;;;6.40;99.90;;;;;;5035141;28;20033;-80
2021/11/12 08:07:01;;;;;;;31.17;17.37;;;6.40;99.90;;;;;;5053619;28;20474;-82
2021/11/12 08:09:33;;;;;;;30.03;17.03;;;6.40;99.90;;;;;;5051016;28;20074;-83
2021/11/12 08:12:03;;;;;;;59.03;27.20;;;6.40;99.90;;;;;;5035141;28;20437;-80
2021/11/12 08:17:29;;;;;;;29.33;17.13;;;6.40;99.90;;;;;;5056161;28;20029;-80
2021/11/12 08:20:05;;;;;;;31.47;16.80;;;6.40;99.90;;;;;;5054614;28;20036;-78
2021/11/12 08:27:49;;;;;;;34.63;17.90;;;6.40;99.90;;;;;;5057128;28;20112;-83
2021/11/12 08:35:38;;;;;;;35.73;18.33;;;6.40;99.90;;;;;;5058725;28;20037;-82
2021/11/12 08:41:09;;;;;;;37.23;17.90;;;6.50;99.90;;;;;;5043284;28;20349;-84
2021/11/12 08:43:40;;;;;;;34.90;19.13;;;6.50;99.90;;;;;;5041860;28;20041;-84
2021/11/12 08:46:25;;;;;;;35.93;20.07;;;6.50;99.90;;;;;;5043296;28;20048;-82
2021/11/12 08:48:57;;;;;;;36.43;19.47;;;6.50;99.90;;;;;;5061486;28;20036;-82
2021/11/12 08:51:23;;;;;;;36.93;19.20;;;6.60;99.90;;;;;;5063116;28;20045;-83
2021/11/12 08:53:51;;;;;;;32.40;18.33;;;6.60;99.90;;;;;;5043267;28;20346;-82
2021/11/12 08:56:18;;;;;;;35.57;19.13;;;6.60;99.90;;;;;;5062745;28;20162;-81
2021/11/12 08:58:48;;;;;;;33.83;19.53;;;6.70;99.90;;;;;;5039392;28;20029;-82
2021/11/12 09:01:15;;;;;;;33.13;19.00;;;6.70;99.90;;;;;;5038131;28;20056;-84
2021/11/12 09:03:41;;;;;;;34.17;19.47;;;6.70;99.90;;;;;;5040915;28;20064;-83
2021/11/12 09:06:08;;;;;;;34.47;19.43;;;6.70;99.90;;;;;;5039441;28;20033;-85
2021/11/12 09:08:35;;;;;;;32.13;18.90;;;6.70;99.90;;;;;;5051030;28;20028;-80
2021/11/12 09:11:04;;;;;;;29.93;17.90;;;6.70;99.90;;;;;;5054969;28;20488;-80
2021/11/12 09:16:34;;;;;;;32.03;19.00;;;6.70;99.90;;;;;;5032315;28;20167;-80
2021/11/12 09:19:02;;;;;;;39.23;21.33;;;6.70;99.90;;;;;;5053088;28;20474;-78
2021/11/12 09:21:28;;;;;;;34.83;20.73;;;6.70;99.90;;;;;;5055092;28;20117;-80
2021/11/12 09:23:56;;;;;;;38.83;21.43;;;6.70;99.90;;;;;;5054769;28;20120;-80
2021/11/12 09:26:23;;;;;;;35.77;20.10;;;6.70;99.90;;;;;;5054795;28;20148;-80
2021/11/12 09:28:49;;;;;;;40.60;21.43;;;6.70;99.90;;;;;;5035972;28;20032;-80
2021/11/12 09:31:16;;;;;;;35.80;21.03;;;6.70;99.90;;;;;;5053843;28;20119;-80
2021/11/12 09:33:42;;;;;;;36.70;20.93;;;6.70;99.90;;;;;;5055488;28;20068;-80
2021/11/12 09:36:09;;;;;;;35.17;20.77;;;6.70;99.90;;;;;;5054964;28;20040;-80
2021/11/12 09:38:36;;;;;;;33.93;20.13;;;6.80;99.90;;;;;;5054764;28;20055;-80
2021/11/12 09:41:05;;;;;;;34.23;20.77;;;6.70;99.90;;;;;;5053626;28;20040;-81
2021/11/12 09:43:31;;;;;;;36.90;21.03;;;6.80;99.90;;;;;;5035170;28;20033;-80
2021/11/12 09:45:57;;;;;;;33.13;20.73;;;6.80;99.90;;;;;;5036694;28;20025;-80
2021/11/12 09:48:23;;;;;;;36.00;21.30;;;6.80;99.90;;;;;;5054513;28;20098;-80
2021/11/12 09:50:50;;;;;;;31.97;19.43;;;6.80;99.90;;;;;;5035447;28;20021;-80
2021/11/12 09:53:16;;;;;;;32.97;19.40;;;6.90;99.90;;;;;;5055068;28;20044;-79
2021/11/12 09:55:43;;;;;;;31.67;19.30;;;6.90;99.90;;;;;;5055517;28;20072;-80
2021/11/12 09:58:09;;;;;;;33.77;19.67;;;6.90;99.90;;;;;;5053167;28;20033;-80
2021/11/12 10:00:38;;;;;;;33.77;18.77;;;6.90;99.90;;;;;;5052273;28;20037;-80
2021/11/12 10:03:06;;;;;;;29.77;18.00;;;6.90;99.90;;;;;;5054283;28;20075;-80
2021/11/12 10:05:47;;;;;;;32.10;18.27;;;6.90;99.90;;;;;;5055337;28;20029;-80
2021/11/12 10:08:26;;;;;;;28.63;16.33;;;6.90;99.90;;;;;;5053592;28;20032;-80
2021/11/12 10:10:58;;;;;;;27.90;16.38;;;7.00;99.90;;;;;;5051923;28;20037;-80
2021/11/12 10:13:30;;;;;;;32.00;17.83;;;7.00;99.90;;;;;;5052105;28;20020;-80
2021/11/12 10:19:14;;;;;;;32.17;17.77;;;7.00;99.90;;;;;;5073471;28;20439;-80
2021/11/12 10:21:46;;;;;;;29.20;17.03;;;7.00;99.90;;;;;;5072089;28;20028;-84
2021/11/12 10:24:16;;;;;;;30.33;16.80;;;7.00;99.90;;;;;;5075303;28;20032;-81
2021/11/12 10:26:45;;;;;;;31.20;17.67;;;7.00;99.90;;;;;;5073216;28;20032;-82
2021/11/12 10:29:13;;;;;;;31.75;18.58;;;7.00;99.90;;;;;;5055154;28;20120;-83
2021/11/12 10:31:45;;;;;;;34.53;18.13;;;7.10;99.90;;;;;;5056563;28;20028;-83
2021/11/12 10:34:18;;;;;;;29.20;17.27;;;7.10;99.90;;;;;;5055714;28;20135;-82
2021/11/12 10:36:52;;;;;;;32.07;18.40;;;7.10;99.90;;;;;;5071536;28;20164;-82
2021/11/12 10:39:27;;;;;;;33.73;18.30;;;7.20;99.90;;;;;;5072446;28;20032;-83
2021/11/12 10:41:55;;;;;;;30.53;17.70;;;7.20;99.90;;;;;;5072615;28;20067;-83
2021/11/12 10:44:21;;;;;;;31.37;17.73;;;7.30;99.90;;;;;;5073783;28;20508;-82
2021/11/12 10:46:47;;;;;;;29.37;17.27;;;7.30;99.90;;;;;;5075281;28;20052;-82
2021/11/12 10:49:31;;;;;;;30.63;18.10;;;7.30;99.90;;;;;;5075412;28;20370;-82
2021/11/12 10:52:04;;;;;;;28.30;17.07;;;7.40;99.90;;;;;;5075768;28;20443;-81
2021/11/12 10:54:40;;;;;;;29.20;18.13;;;7.40;99.90;;;;;;5075973;28;20020;-81
2021/11/12 10:57:07;;;;;;;30.87;16.80;;;7.50;99.90;;;;;;5075058;28;20489;-81
2021/11/12 10:59:50;;;;;;;32.10;16.33;;;7.50;99.90;;;;;;5055890;28;20052;-81
2021/11/12 11:02:28;;;;;;;25.80;16.10;;;7.50;99.90;;;;;;5074037;28;20115;-80
2021/11/12 11:05:00;;;;;;;29.50;16.00;;;7.60;99.90;;;;;;5072730;28;20086;-79
2021/11/12 11:07:28;;;;;;;28.53;15.90;;;7.60;99.90;;;;;;5073809;28;20430;-79
2021/11/12 11:09:56;;;;;;;26.23;15.57;;;7.50;99.90;;;;;;5072151;28;20037;-79
2021/11/12 11:12:33;;;;;;;27.15;16.48;;;7.50;99.90;;;;;;5072054;28;20100;-80
2021/11/12 11:15:19;;;;;;;26.63;16.27;;;7.50;99.90;;;;;;5073290;28;20486;-80
2021/11/12 11:17:50;;;;;;;28.07;15.53;;;7.60;99.90;;;;;;5056122;28;20050;-79
2021/11/12 11:20:21;;;;;;;23.93;15.37;;;7.60;99.90;;;;;;5071748;28;20040;-81
2021/11/12 11:22:55;;;;;;;32.13;16.23;;;7.60;99.90;;;;;;5054026;28;20032;-80
2021/11/12 11:25:23;;;;;;;29.53;16.90;;;7.60;99.90;;;;;;5072756;28;20115;-80
2021/11/12 11:27:49;;;;;;;26.83;16.00;;;7.60;99.90;;;;;;5072389;28;20131;-80
2021/11/12 11:30:15;;;;;;;24.17;14.77;;;7.60;99.90;;;;;;5071967;28;20032;-80
2021/11/12 11:32:45;;;;;;;26.63;14.57;;;7.70;99.90;;;;;;5053581;28;20035;-82
2021/11/12 11:35:12;;;;;;;29.27;16.53;;;7.70;99.90;;;;;;5038679;28;20070;-82
2021/11/12 11:37:39;;;;;;;27.40;15.97;;;7.80;99.90;;;;;;5073136;28;20032;-84
2021/11/12 11:40:13;;;;;;;24.20;15.20;;;7.80;99.90;;;;;;5072579;28;20039;-83
2021/11/12 11:42:43;;;;;;;24.53;15.03;;;7.80;99.90;;;;;;5073395;28;20036;-83
2021/11/12 11:45:16;;;;;;;25.83;14.97;;;7.80;99.90;;;;;;5074822;28;20451;-82
2021/11/12 11:47:44;;;;;;;25.27;15.80;;;7.80;99.90;;;;;;5056617;28;20051;-84
2021/11/12 11:50:27;;;;;;;24.60;15.07;;;7.70;99.90;;;;;;5074668;28;20025;-85
2021/11/12 11:52:53;;;;;;;24.43;14.50;;;7.70;99.90;;;;;;5057171;28;20032;-83
2021/11/12 11:55:37;;;;;;;23.90;14.70;;;7.70;99.90;;;;;;5073933;28;20032;-84
2021/11/12 11:58:41;;;;;;;24.20;14.63;;;7.80;99.90;;;;;;5059149;28;20056;-81
2021/11/12 12:01:10;;;;;;;27.10;14.47;;;7.90;99.90;;;;;;5074697;28;20477;-81
2021/11/12 12:03:35;;;;;;;27.17;14.85;;;7.90;99.90;;;;;;5072784;28;20134;-81
2021/11/12 12:06:09;;;;;;;24.27;15.13;;;7.80;99.90;;;;;;5075155;28;20096;-81
2021/11/12 12:09:03;;;;;;;24.43;14.73;;;7.90;99.90;;;;;;5075019;28;20413;-80
2021/11/12 12:11:29;;;;;;;22.30;13.63;;;7.90;99.90;;;;;;5074322;28;20044;-81
2021/11/12 12:14:18;;;;;;;24.00;14.60;;;7.90;99.90;;;;;;5073578;28;20528;-81
2021/11/12 12:17:20;;;;;;;24.35;15.00;;;7.90;99.90;;;;;;5074372;28;20133;-81
2021/11/12 12:30:58;;;;;;;25.13;13.97;;;7.90;99.90;;;;;;5072061;28;20405;-80
2021/11/12 13:25:26;;;;;;;19.33;12.17;;;8.40;99.90;;;;;;5023315;28;20033;-84
2021/11/12 13:28:17;;;;;;;19.37;11.63;;;8.40;99.90;;;;;;5006892;28;20065;-84
2021/11/12 13:30:52;;;;;;;20.17;11.67;;;8.50;99.90;;;;;;5004473;28;20132;-79
2021/11/12 13:33:43;;;;;;;19.20;11.70;;;8.50;99.90;;;;;;5015984;28;20476;-82
2021/11/12 13:36:11;;;;;;;18.47;10.63;;;8.60;99.90;;;;;;5034924;28;20386;-81
2021/11/12 13:39:08;;;;;;;19.70;11.37;;;8.60;99.90;;;;;;5016780;28;20072;-81
2021/11/12 13:41:37;;;;;;;19.73;11.70;;;8.70;99.90;;;;;;5016930;28;20044;-81
2021/11/12 13:44:05;;;;;;;17.73;10.52;;;8.80;99.90;;;;;;5034528;28;20037;-79
2021/11/12 13:46:59;;;;;;;18.00;11.50;;;8.80;99.90;;;;;;5000221;28;20034;-80
2021/11/12 13:49:24;;;;;;;18.70;11.77;;;8.80;99.90;;;;;;5014580;28;20029;-80
2021/11/12 13:51:50;;;;;;;20.23;12.67;;;8.80;99.90;;;;;;4997806;28;20026;-79
2021/11/12 13:54:16;;;;;;;17.93;11.73;;;8.80;99.90;;;;;;5015390;28;20092;-80
2021/11/12 13:56:42;;;;;;;19.53;11.47;;;8.80;99.90;;;;;;4998376;28;20052;-80
2021/11/12 13:59:13;;;;;;;20.03;11.90;;;8.70;99.90;;;;;;4995920;28;20034;-79
2021/11/12 14:01:39;;;;;;;18.00;11.97;;;8.70;99.90;;;;;;4997620;28;20026;-78
2021/11/12 14:04:26;;;;;;;18.30;11.43;;;8.70;99.90;;;;;;5015604;28;20406;-79
2021/11/12 14:06:53;;;;;;;18.43;12.23;;;8.70;99.90;;;;;;5015321;28;20471;-80
2021/11/12 14:09:34;;;;;;;19.53;11.40;;;8.70;99.90;;;;;;5014915;28;20068;-79
2021/11/12 14:12:11;;;;;;;19.83;11.47;;;8.70;99.90;;;;;;5015077;28;20022;-79
2021/11/12 14:14:38;;;;;;;19.70;11.20;;;8.70;99.90;;;;;;5019609;28;20025;-80
2021/11/12 14:17:19;;;;;;;17.27;11.20;;;8.70;99.90;;;;;;5017266;28;20032;-78
2021/11/12 14:19:54;;;;;;;18.67;11.20;;;8.70;99.90;;;;;;5015756;28;20068;-79
2021/11/12 14:28:18;;;;;;;19.93;11.87;;;8.60;99.90;;;;;;5016675;28;20033;-79
2021/11/12 14:33:24;;;;;;;20.23;12.70;;;8.50;99.90;;;;;;5015480;28;20029;-80
2021/11/12 14:36:17;;;;;;;19.30;12.93;;;8.60;99.90;;;;;;5034108;28;20040;-80
2021/11/12 14:39:06;;;;;;;19.90;10.93;;;8.60;99.90;;;;;;5015697;28;20485;-79
2021/11/12 14:41:45;;;;;;;20.27;11.47;;;8.60;99.90;;;;;;5032851;28;20030;-80
2021/11/12 14:52:05;;;;;;;17.80;11.60;;;8.60;99.90;;;;;;5034335;28;20513;-79
2021/11/12 14:54:47;;;;;;;17.25;11.75;;;8.60;99.90;;;;;;5034452;28;20515;-80
2021/11/12 14:59:45;;;;;;;23.10;11.83;;;8.60;99.90;;;;;;5013694;28;20820;-81
2021/11/12 15:02:11;;;;;;;18.03;11.33;;;8.60;99.90;;;;;;5015192;28;20620;-81
2021/11/12 15:04:37;;;;;;;19.50;11.23;;;8.70;99.90;;;;;;5015134;28;20053;-79
2021/11/12 15:07:03;;;;;;;20.17;11.80;;;8.70;99.90;;;;;;5033876;28;20033;-81
2021/11/12 15:09:31;;;;;;;21.40;11.77;;;8.80;99.90;;;;;;5015434;28;20103;-80
2021/11/12 15:12:01;;;;;;;17.93;10.90;;;8.70;99.90;;;;;;5031896;28;20025;-86
2021/11/12 15:14:29;;;;;;;18.08;11.60;;;8.80;99.90;;;;;;5009250;28;20040;-83
2021/11/12 15:16:55;;;;;;;20.33;11.30;;;8.80;99.90;;;;;;5012320;28;20044;-84
2021/11/12 15:19:23;;;;;;;19.43;10.67;;;8.80;99.90;;;;;;4995853;28;20165;-81
2021/11/12 15:22:07;;;;;;;20.03;11.13;;;8.80;99.90;;;;;;4997961;28;20479;-81
2021/11/12 15:27:30;;;;;;;19.60;11.87;;;8.80;99.90;;;;;;5015960;28;20482;-81
2021/11/12 15:33:03;;;;;;;21.50;11.83;;;8.80;99.90;;;;;;5003917;28;20097;-81
2021/11/12 15:35:31;;;;;;;20.77;12.93;;;8.70;99.90;;;;;;5017022;28;20115;-81
2021/11/12 15:38:06;;;;;;;20.70;11.87;;;8.70;99.90;;;;;;5016774;28;20425;-81
2021/11/12 15:40:41;;;;;;;19.77;11.30;;;8.70;99.90;;;;;;5014688;28;20092;-81
2021/11/12 15:48:11;;;;;;;19.97;11.60;;;8.70;99.90;;;;;;4998511;28;20484;-81
2021/11/12 15:53:24;;;;;;;21.87;12.57;;;8.60;99.90;;;;;;4992897;28;20030;-86
2021/11/12 16:04:01;;;;;;;18.37;11.30;;;8.60;99.90;;;;;;4993931;28;20030;-88
2021/11/12 16:14:53;;;;;;;20.27;11.47;;;8.60;99.90;;;;;;4999762;28;20169;-90
2021/11/12 16:17:41;;;;;;;21.07;12.77;;;8.50;99.90;;;;;;5009117;28;20125;-90
2021/11/12 16:23:08;;;;;;;19.47;12.00;;;8.50;99.90;;;;;;4993388;28;20030;-90
2021/11/12 16:25:37;;;;;;;19.00;11.93;;;8.40;99.90;;;;;;5010396;28;20037;-92
2021/11/12 16:28:05;;;;;;;18.23;10.60;;;8.40;99.90;;;;;;4995725;28;20679;-86
2021/11/12 16:30:36;;;;;;;17.77;10.60;;;8.40;99.90;;;;;;5008379;28;20501;-86
2021/11/12 16:33:04;;;;;;;16.63;10.83;;;8.40;99.90;;;;;;5028283;28;20030;-86
2021/11/12 16:35:34;;;;;;;17.10;11.13;;;8.40;99.90;;;;;;5014204;28;20057;-85
2021/11/12 16:38:25;;;;;;;17.40;11.23;;;8.50;99.90;;;;;;5018399;28;20079;-86
2021/11/12 16:40:54;;;;;;;20.43;11.30;;;8.50;99.90;;;;;;5032975;28;20045;-86
2021/11/12 16:48:44;;;;;;;19.13;10.93;;;8.40;99.90;;;;;;5015709;28;20033;-86
2021/11/12 16:59:11;;;;;;;19.37;11.17;;;8.50;99.90;;;;;;5014253;28;20079;-88
2021/11/12 17:07:20;;;;;;;18.20;11.03;;;8.50;99.90;;;;;;4997423;28;20070;-86
2021/11/12 17:17:33;;;;;;;18.53;9.80;;;8.40;99.90;;;;;;5014638;28;20369;-86
2021/11/12 17:22:59;;;;;;;16.40;10.20;;;8.40;99.90;;;;;;4996561;28;20029;-85
2021/11/12 17:47:15;;;;;;;17.87;10.90;;;8.40;99.90;;;;;;5014360;28;20040;-85
2021/11/12 17:52:46;;;;;;;18.73;11.17;;;8.40;99.90;;;;;;5014520;28;20022;-85
2021/11/12 18:03:17;;;;;;;17.03;10.13;;;8.40;99.90;;;;;;5014517;28;20127;-84
2021/11/12 18:05:50;;;;;;;18.70;10.10;;;8.40;99.90;;;;;;4996164;28;20137;-84
2021/11/12 21:44:23;;;;;;;18.50;10.27;;;8.10;99.90;;;;;;5073801;28;20058;-84
2021/11/12 21:46:49;;;;;;;18.87;10.97;;;8.10;99.90;;;;;;5056541;28;20035;-84
2021/11/12 21:49:15;;;;;;;16.17;10.20;;;8.10;99.90;;;;;;5055698;28;20118;-83
2021/11/12 21:51:43;;;;;;;17.17;10.27;;;8.10;99.90;;;;;;5055946;28;20124;-84
2021/11/12 21:54:10;;;;;;;16.90;10.53;;;8.20;99.90;;;;;;5055895;28;20063;-84
2021/11/12 21:56:36;;;;;;;16.40;10.63;;;8.10;99.90;;;;;;5073936;28;20096;-85
2021/11/12 21:59:06;;;;;;;19.57;10.97;;;8.10;99.90;;;;;;5071000;28;20124;-84
2021/11/12 22:01:33;;;;;;;17.10;10.03;;;8.10;99.90;;;;;;5072670;28;20028;-85
2021/11/12 22:04:01;;;;;;;19.73;10.90;;;8.10;99.90;;;;;;5057546;28;20039;-85
2021/11/12 22:06:27;;;;;;;18.20;10.23;;;8.10;99.90;;;;;;5057547;28;20412;-84
2021/11/12 22:08:52;;;;;;;18.10;11.27;;;8.00;99.90;;;;;;5075045;28;20044;-84
2021/11/12 22:11:18;;;;;;;17.60;10.97;;;8.00;99.90;;;;;;5058082;28;20031;-84
2021/11/12 22:13:45;;;;;;;18.10;10.50;;;8.00;99.90;;;;;;5076092;28;20040;-84
2021/11/12 22:16:15;;;;;;;17.63;10.10;;;8.00;99.90;;;;;;5076356;28;20077;-84
2021/11/12 22:18:42;;;;;;;16.30;10.03;;;8.10;99.90;;;;;;5076041;28;20020;-83
2021/11/12 22:21:08;;;;;;;21.13;10.93;;;8.00;99.90;;;;;;5075399;28;20041;-84
2021/11/12 22:23:35;;;;;;;18.13;11.00;;;7.90;99.90;;;;;;5073851;28;20051;-85
2021/11/12 22:26:01;;;;;;;21.20;10.53;;;7.90;99.90;;;;;;5057342;28;20032;-85
2021/11/12 22:28:28;;;;;;;17.67;11.53;;;8.00;99.90;;;;;;5075060;28;20028;-84
2021/11/12 22:30:54;;;;;;;27.10;14.63;;;7.90;99.90;;;;;;5056631;28;20043;-84
2021/11/12 22:33:20;;;;;;;18.77;11.50;;;8.00;99.90;;;;;;5057071;28;20121;-84
2021/11/12 22:35:46;;;;;;;18.97;10.80;;;8.00;99.90;;;;;;5074432;28;20024;-84
2021/11/12 22:38:12;;;;;;;17.23;11.40;;;7.90;99.90;;;;;;5076621;28;20020;-83
2021/11/12 22:40:43;;;;;;;18.10;10.87;;;8.00;99.90;;;;;;5075771;28;20037;-84
2021/11/12 22:43:10;;;;;;;19.30;11.80;;;7.90;99.90;;;;;;5075189;28;20064;-84
2021/11/12 22:45:36;;;;;;;19.87;10.67;;;8.00;99.90;;;;;;5059030;28;20036;-83
2021/11/12 22:48:05;;;;;;;18.05;10.75;;;7.90;99.90;;;;;;5075882;28;20052;-83